sensor_id;sensor_type;location;lat;lon;timestamp;pressure;altitude;pressure_sealevel;temperature;humidity
27840;BME280;15207;42.182;24.308;2023-04-30T00:01:48;98924.44;;;12.51;100.00
27840;BME280;15207;42.182;24.308;2023-04-30T00:04:14;98928.41;;;12.56;100.00
27840;BME280;15207;42.182;24.308;2023-04-30T00:06:40;98929.97;;;12.59;100.00
27840;BME280;15207;42.182;24.308;2023-04-30T00:09:05;98931.38;;;12.53;100.00
27840;BME280;15207;42.182;24.308;2023-04-30T00:11:31;98924.44;;;12.61;100.00
27840;BME280;15207;42.182;24.308;2023-04-30T00:13:56;98929.41;;;12.55;100.00
27840;BME280;15207;42.182;24.308;2023-04-30T00:16:22;98925.00;;;12.64;100.00
27840;BME280;15207;42.182;24.308;2023-04-30T00:18:47;98921.44;;;12.64;100.00
27840;BME280;15207;42.182;24.308;2023-04-30T00:21:13;98933.59;;;12.68;100.00
27840;BME280;15207;42.182;24.308;2023-04-30T00:23:38;98931.81;;;12.49;100.00
27840;BME280;15207;42.182;24.308;2023-04-30T00:26:04;98931.53;;;12.42;100.00
27840;BME280;15207;42.182;24.308;2023-04-30T00:28:29;98927.56;;;12.36;100.00
27840;BME280;15207;42.182;24.308;2023-04-30T00:30:55;98929.56;;;12.34;100.00
27840;BME280;15207;42.182;24.308;2023-04-30T00:33:20;98924.03;;;12.26;100.00
27840;BME280;15207;42.182;24.308;2023-04-30T00:35:46;98938.44;;;12.35;100.00
27840;BME280;15207;42.182;24.308;2023-04-30T00:38:12;98929.84;;;12.41;100.00
27840;BME280;15207;42.182;24.308;2023-04-30T00:40:39;98932.63;;;12.49;100.00
27840;BME280;15207;42.182;24.308;2023-04-30T00:43:05;98934.34;;;12.50;100.00
27840;BME280;15207;42.182;24.308;2023-04-30T00:45:31;98928.97;;;12.50;100.00
27840;BME280;15207;42.182;24.308;2023-04-30T00:47:56;98928.25;;;12.58;100.00
27840;BME280;15207;42.182;24.308;2023-04-30T00:50:22;98929.09;;;12.59;100.00
27840;BME280;15207;42.182;24.308;2023-04-30T00:52:48;98934.19;;;12.62;100.00
27840;BME280;15207;42.182;24.308;2023-04-30T00:55:15;98934.06;;;12.63;100.00
27840;BME280;15207;42.182;24.308;2023-04-30T00:57:41;98934.03;;;12.73;100.00
27840;BME280;15207;42.182;24.308;2023-04-30T01:00:07;98939.91;;;12.96;100.00
27840;BME280;15207;42.182;24.308;2023-04-30T01:02:35;98934.91;;;13.12;100.00
27840;BME280;15207;42.182;24.308;2023-04-30T01:05:02;98927.41;;;13.15;100.00
27840;BME280;15207;42.182;24.308;2023-04-30T01:07:28;98932.09;;;13.13;100.00
27840;BME280;15207;42.182;24.308;2023-04-30T01:09:54;98937.16;;;13.16;100.00
27840;BME280;15207;42.182;24.308;2023-04-30T01:18:17;98939.66;;;12.80;100.00
27840;BME280;15207;42.182;24.308;2023-04-30T01:20:50;98937.16;;;12.68;100.00
27840;BME280;15207;42.182;24.308;2023-04-30T01:28:46;98925.81;;;13.22;98.92
27840;BME280;15207;42.182;24.308;2023-04-30T01:31:18;98924.16;;;13.40;100.00
27840;BME280;15207;42.182;24.308;2023-04-30T01:33:43;98932.09;;;13.51;100.00
27840;BME280;15207;42.182;24.308;2023-04-30T01:39:19;98934.13;;;13.67;99.17
27840;BME280;15207;42.182;24.308;2023-04-30T01:42:06;98932.03;;;13.61;98.80
27840;BME280;15207;42.182;24.308;2023-04-30T01:52:58;98933.78;;;13.04;96.36
27840;BME280;15207;42.182;24.308;2023-04-30T01:57:58;98923.56;;;13.18;98.97
27840;BME280;15207;42.182;24.308;2023-04-30T02:00:25;98918.88;;;13.20;97.98
27840;BME280;15207;42.182;24.308;2023-04-30T02:02:51;98916.38;;;13.08;97.17
27840;BME280;15207;42.182;24.308;2023-04-30T02:05:17;98920.06;;;13.07;98.71
27840;BME280;15207;42.182;24.308;2023-04-30T02:07:44;98927.19;;;12.99;99.44
27840;BME280;15207;42.182;24.308;2023-04-30T02:10:10;98923.50;;;13.00;99.49
27840;BME280;15207;42.182;24.308;2023-04-30T02:12:37;98921.22;;;12.95;99.49
27840;BME280;15207;42.182;24.308;2023-04-30T02:15:04;98917.13;;;13.01;98.89
27840;BME280;15207;42.182;24.308;2023-04-30T02:17:30;98914.16;;;12.94;98.91
27840;BME280;15207;42.182;24.308;2023-04-30T02:19:57;98926.78;;;12.83;98.52
27840;BME280;15207;42.182;24.308;2023-04-30T02:22:22;98920.41;;;12.85;97.24
27840;BME280;15207;42.182;24.308;2023-04-30T02:24:48;98928.25;;;12.68;96.81
27840;BME280;15207;42.182;24.308;2023-04-30T02:27:14;98927.66;;;12.74;97.20
27840;BME280;15207;42.182;24.308;2023-04-30T02:29:40;98921.84;;;12.79;98.81
27840;BME280;15207;42.182;24.308;2023-04-30T02:32:05;98918.03;;;12.72;97.84
27840;BME280;15207;42.182;24.308;2023-04-30T02:34:31;98919.75;;;12.73;99.58
27840;BME280;15207;42.182;24.308;2023-04-30T02:36:56;98913.94;;;12.67;98.89
27840;BME280;15207;42.182;24.308;2023-04-30T02:39:22;98922.59;;;12.61;99.81
27840;BME280;15207;42.182;24.308;2023-04-30T02:41:48;98923.84;;;12.57;99.90
27840;BME280;15207;42.182;24.308;2023-04-30T02:44:13;98928.97;;;12.60;99.65
27840;BME280;15207;42.182;24.308;2023-04-30T02:46:38;98935.19;;;12.61;100.00
27840;BME280;15207;42.182;24.308;2023-04-30T02:49:04;98923.72;;;12.68;100.00
27840;BME280;15207;42.182;24.308;2023-04-30T02:51:30;98927.53;;;12.66;100.00
27840;BME280;15207;42.182;24.308;2023-04-30T02:53:57;98933.06;;;12.64;100.00
27840;BME280;15207;42.182;24.308;2023-04-30T02:56:22;98931.63;;;12.70;99.79
27840;BME280;15207;42.182;24.308;2023-04-30T02:58:48;98932.91;;;12.56;98.63
27840;BME280;15207;42.182;24.308;2023-04-30T03:01:13;98939.44;;;12.43;98.85
27840;BME280;15207;42.182;24.308;2023-04-30T03:03:39;98933.94;;;12.45;98.02
27840;BME280;15207;42.182;24.308;2023-04-30T03:06:05;98939.31;;;12.45;97.34
27840;BME280;15207;42.182;24.308;2023-04-30T03:08:30;98933.34;;;12.51;97.83
27840;BME280;15207;42.182;24.308;2023-04-30T03:10:56;98937.19;;;12.49;97.58
27840;BME280;15207;42.182;24.308;2023-04-30T03:13:21;98941.41;;;12.41;99.11
27840;BME280;15207;42.182;24.308;2023-04-30T03:15:56;98939.72;;;12.40;98.61
27840;BME280;15207;42.182;24.308;2023-04-30T03:18:22;98936.06;;;12.32;98.36
27840;BME280;15207;42.182;24.308;2023-04-30T03:20:47;98931.25;;;12.15;97.58
27840;BME280;15207;42.182;24.308;2023-04-30T03:23:13;98946.22;;;12.08;97.77
27840;BME280;15207;42.182;24.308;2023-04-30T03:25:38;98945.34;;;11.98;98.37
27840;BME280;15207;42.182;24.308;2023-04-30T03:28:04;98947.72;;;11.91;98.20
27840;BME280;15207;42.182;24.308;2023-04-30T03:30:29;98949.56;;;11.90;98.85
27840;BME280;15207;42.182;24.308;2023-04-30T03:32:55;98946.56;;;11.84;99.25
27840;BME280;15207;42.182;24.308;2023-04-30T03:35:20;98944.56;;;11.76;99.63
27840;BME280;15207;42.182;24.308;2023-04-30T03:37:46;98951.50;;;11.78;100.00
27840;BME280;15207;42.182;24.308;2023-04-30T03:40:11;98952.66;;;11.86;100.00
27840;BME280;15207;42.182;24.308;2023-04-30T03:42:37;98963.47;;;11.74;99.80
27840;BME280;15207;42.182;24.308;2023-04-30T03:45:03;98964.91;;;11.69;100.00
27840;BME280;15207;42.182;24.308;2023-04-30T03:47:28;98967.44;;;11.70;100.00
27840;BME280;15207;42.182;24.308;2023-04-30T03:49:54;98977.44;;;11.68;100.00
27840;BME280;15207;42.182;24.308;2023-04-30T03:52:20;98967.69;;;11.57;100.00
27840;BME280;15207;42.182;24.308;2023-04-30T03:54:46;98975.06;;;11.65;100.00
27840;BME280;15207;42.182;24.308;2023-04-30T03:57:12;98978.19;;;11.70;100.00
27840;BME280;15207;42.182;24.308;2023-04-30T03:59:39;98981.00;;;11.69;100.00
27840;BME280;15207;42.182;24.308;2023-04-30T04:02:05;98983.81;;;11.77;100.00
27840;BME280;15207;42.182;24.308;2023-04-30T04:04:33;98985.53;;;11.78;100.00
27840;BME280;15207;42.182;24.308;2023-04-30T04:06:59;98984.13;;;11.84;100.00
27840;BME280;15207;42.182;24.308;2023-04-30T04:09:25;98992.47;;;11.90;100.00
27840;BME280;15207;42.182;24.308;2023-04-30T04:11:51;98990.47;;;11.83;100.00
27840;BME280;15207;42.182;24.308;2023-04-30T04:14:16;98994.03;;;11.93;100.00
27840;BME280;15207;42.182;24.308;2023-04-30T04:16:42;98997.84;;;11.90;100.00
27840;BME280;15207;42.182;24.308;2023-04-30T04:19:07;98995.47;;;11.97;100.00
27840;BME280;15207;42.182;24.308;2023-04-30T04:21:33;98995.88;;;11.93;100.00
27840;BME280;15207;42.182;24.308;2023-04-30T04:23:59;99001.41;;;12.01;100.00
27840;BME280;15207;42.182;24.308;2023-04-30T04:26:27;98999.47;;;12.13;100.00
27840;BME280;15207;42.182;24.308;2023-04-30T04:28:53;98997.94;;;12.20;100.00
27840;BME280;15207;42.182;24.308;2023-04-30T04:31:19;98994.69;;;12.26;100.00
27840;BME280;15207;42.182;24.308;2023-04-30T04:33:44;99002.06;;;12.34;100.00
27840;BME280;15207;42.182;24.308;2023-04-30T04:36:10;99005.44;;;12.36;100.00
27840;BME280;15207;42.182;24.308;2023-04-30T04:38:36;99009.28;;;12.43;99.35
27840;BME280;15207;42.182;24.308;2023-04-30T04:41:01;99012.94;;;12.42;98.86
27840;BME280;15207;42.182;24.308;2023-04-30T04:43:27;99011.38;;;12.40;99.08
27840;BME280;15207;42.182;24.308;2023-04-30T04:45:52;99017.16;;;12.25;97.95
27840;BME280;15207;42.182;24.308;2023-04-30T04:48:18;99008.25;;;12.15;97.54
27840;BME280;15207;42.182;24.308;2023-04-30T04:50:44;99007.81;;;12.20;96.98
27840;BME280;15207;42.182;24.308;2023-04-30T04:53:09;99009.94;;;12.16;96.66
27840;BME280;15207;42.182;24.308;2023-04-30T04:55:35;99019.63;;;11.97;96.29
27840;BME280;15207;42.182;24.308;2023-04-30T04:58:01;99014.19;;;12.19;97.44
27840;BME280;15207;42.182;24.308;2023-04-30T05:00:26;99017.88;;;12.18;96.08
27840;BME280;15207;42.182;24.308;2023-04-30T05:02:52;99022.66;;;12.24;95.59
27840;BME280;15207;42.182;24.308;2023-04-30T05:05:18;99022.94;;;12.21;96.04
27840;BME280;15207;42.182;24.308;2023-04-30T05:07:45;99024.53;;;12.33;96.48
27840;BME280;15207;42.182;24.308;2023-04-30T05:10:10;99025.66;;;12.40;96.85
27840;BME280;15207;42.182;24.308;2023-04-30T05:12:36;99021.00;;;12.52;96.59
27840;BME280;15207;42.182;24.308;2023-04-30T05:15:02;99024.25;;;12.66;96.55
27840;BME280;15207;42.182;24.308;2023-04-30T05:17:28;99020.56;;;12.67;94.34
27840;BME280;15207;42.182;24.308;2023-04-30T05:19:54;99025.09;;;12.76;95.34
27840;BME280;15207;42.182;24.308;2023-04-30T05:22:20;99028.63;;;12.87;95.35
27840;BME280;15207;42.182;24.308;2023-04-30T05:24:46;99025.91;;;12.96;95.57
27840;BME280;15207;42.182;24.308;2023-04-30T05:27:11;99032.53;;;13.12;94.06
27840;BME280;15207;42.182;24.308;2023-04-30T05:29:37;99030.13;;;13.19;95.27
27840;BME280;15207;42.182;24.308;2023-04-30T05:32:02;99028.38;;;13.28;95.42
27840;BME280;15207;42.182;24.308;2023-04-30T05:34:28;99024.41;;;13.32;95.39
27840;BME280;15207;42.182;24.308;2023-04-30T05:36:53;99026.09;;;13.43;96.36
27840;BME280;15207;42.182;24.308;2023-04-30T05:39:19;99023.38;;;13.53;95.54
27840;BME280;15207;42.182;24.308;2023-04-30T05:41:45;99017.72;;;13.56;94.07
27840;BME280;15207;42.182;24.308;2023-04-30T05:44:10;99015.69;;;13.68;93.48
27840;BME280;15207;42.182;24.308;2023-04-30T05:46:36;99028.66;;;13.82;92.20
27840;BME280;15207;42.182;24.308;2023-04-30T05:49:01;99020.13;;;13.87;91.46
27840;BME280;15207;42.182;24.308;2023-04-30T05:51:27;99026.22;;;13.89;90.69
27840;BME280;15207;42.182;24.308;2023-04-30T05:53:53;99030.00;;;13.96;90.69
27840;BME280;15207;42.182;24.308;2023-04-30T05:56:19;99027.94;;;14.08;89.92
27840;BME280;15207;42.182;24.308;2023-04-30T05:58:45;99024.59;;;14.24;89.29
27840;BME280;15207;42.182;24.308;2023-04-30T06:01:11;99025.03;;;14.38;87.95
27840;BME280;15207;42.182;24.308;2023-04-30T06:03:37;99025.44;;;14.43;87.06
27840;BME280;15207;42.182;24.308;2023-04-30T06:06:03;99018.50;;;14.40;85.53
27840;BME280;15207;42.182;24.308;2023-04-30T06:08:29;99029.47;;;14.57;83.75
27840;BME280;15207;42.182;24.308;2023-04-30T06:10:54;99016.00;;;14.57;82.76
27840;BME280;15207;42.182;24.308;2023-04-30T06:13:21;99030.00;;;14.79;82.19
27840;BME280;15207;42.182;24.308;2023-04-30T06:15:46;99020.44;;;15.03;82.59
27840;BME280;15207;42.182;24.308;2023-04-30T06:18:12;99016.00;;;15.20;80.45
27840;BME280;15207;42.182;24.308;2023-04-30T06:20:38;99019.88;;;15.44;80.17
27840;BME280;15207;42.182;24.308;2023-04-30T06:23:04;99012.97;;;15.84;77.29
27840;BME280;15207;42.182;24.308;2023-04-30T06:25:30;99015.31;;;16.22;74.96
27840;BME280;15207;42.182;24.308;2023-04-30T06:27:55;99020.72;;;16.39;74.36
27840;BME280;15207;42.182;24.308;2023-04-30T06:30:21;99017.72;;;16.59;72.01
27840;BME280;15207;42.182;24.308;2023-04-30T06:32:46;99012.84;;;16.71;71.43
27840;BME280;15207;42.182;24.308;2023-04-30T06:35:12;99011.47;;;16.91;73.12
27840;BME280;15207;42.182;24.308;2023-04-30T06:37:37;99005.91;;;17.10;70.47
27840;BME280;15207;42.182;24.308;2023-04-30T06:40:04;99012.97;;;17.36;68.14
27840;BME280;15207;42.182;24.308;2023-04-30T06:42:30;99003.06;;;17.68;68.07
27840;BME280;15207;42.182;24.308;2023-04-30T06:45:00;98996.22;;;17.89;64.46
27840;BME280;15207;42.182;24.308;2023-04-30T06:47:27;98993.34;;;17.82;68.11
27840;BME280;15207;42.182;24.308;2023-04-30T06:49:53;98990.38;;;18.08;65.23
27840;BME280;15207;42.182;24.308;2023-04-30T06:52:18;98994.94;;;18.08;62.52
27840;BME280;15207;42.182;24.308;2023-04-30T06:54:44;98998.00;;;18.05;63.12
27840;BME280;15207;42.182;24.308;2023-04-30T06:57:09;98997.78;;;18.15;61.77
27840;BME280;15207;42.182;24.308;2023-04-30T06:59:36;98992.31;;;17.83;61.56
27840;BME280;15207;42.182;24.308;2023-04-30T07:02:01;98992.69;;;17.80;66.28
27840;BME280;15207;42.182;24.308;2023-04-30T07:04:27;99000.75;;;17.88;64.21
27840;BME280;15207;42.182;24.308;2023-04-30T07:06:53;98997.63;;;18.16;60.56
27840;BME280;15207;42.182;24.308;2023-04-30T07:09:18;98987.09;;;18.21;59.66
27840;BME280;15207;42.182;24.308;2023-04-30T07:11:44;98987.81;;;18.62;60.48
27840;BME280;15207;42.182;24.308;2023-04-30T07:14:09;98987.13;;;18.83;58.32
27840;BME280;15207;42.182;24.308;2023-04-30T07:16:35;98996.38;;;18.74;59.71
27840;BME280;15207;42.182;24.308;2023-04-30T07:19:00;98990.72;;;18.99;57.91
27840;BME280;15207;42.182;24.308;2023-04-30T07:21:26;98982.69;;;18.67;55.46
27840;BME280;15207;42.182;24.308;2023-04-30T07:23:52;98986.94;;;18.85;58.85
27840;BME280;15207;42.182;24.308;2023-04-30T07:26:18;98987.31;;;19.05;56.61
27840;BME280;15207;42.182;24.308;2023-04-30T07:28:46;98984.88;;;19.10;54.02
27840;BME280;15207;42.182;24.308;2023-04-30T07:31:12;98986.19;;;19.14;54.81
27840;BME280;15207;42.182;24.308;2023-04-30T07:33:38;98981.34;;;19.55;53.36
27840;BME280;15207;42.182;24.308;2023-04-30T07:36:03;98981.13;;;19.72;52.09
27840;BME280;15207;42.182;24.308;2023-04-30T07:38:29;98980.41;;;19.63;55.33
27840;BME280;15207;42.182;24.308;2023-04-30T07:40:55;98980.31;;;19.71;52.72
27840;BME280;15207;42.182;24.308;2023-04-30T07:43:20;98977.69;;;19.63;52.78
27840;BME280;15207;42.182;24.308;2023-04-30T07:45:46;98981.88;;;19.50;52.31
27840;BME280;15207;42.182;24.308;2023-04-30T07:48:13;98977.22;;;19.44;51.80
27840;BME280;15207;42.182;24.308;2023-04-30T07:50:39;98976.56;;;19.72;53.49
27840;BME280;15207;42.182;24.308;2023-04-30T07:53:05;98963.78;;;20.03;50.30
27840;BME280;15207;42.182;24.308;2023-04-30T07:55:33;98965.56;;;20.32;51.03
27840;BME280;15207;42.182;24.308;2023-04-30T07:57:59;98968.69;;;20.51;49.99
27840;BME280;15207;42.182;24.308;2023-04-30T08:00:26;98962.97;;;20.68;48.12
27840;BME280;15207;42.182;24.308;2023-04-30T08:02:54;98960.50;;;20.73;46.96
27840;BME280;15207;42.182;24.308;2023-04-30T08:05:19;98958.44;;;20.53;46.14
27840;BME280;15207;42.182;24.308;2023-04-30T08:07:45;98960.56;;;20.58;44.21
27840;BME280;15207;42.182;24.308;2023-04-30T08:10:11;98958.19;;;20.92;45.30
27840;BME280;15207;42.182;24.308;2023-04-30T08:12:37;98955.00;;;21.17;43.94
27840;BME280;15207;42.182;24.308;2023-04-30T08:15:04;98958.88;;;21.00;43.90
27840;BME280;15207;42.182;24.308;2023-04-30T08:17:33;98959.41;;;20.89;43.38
27840;BME280;15207;42.182;24.308;2023-04-30T08:19:59;98960.16;;;21.05;43.03
27840;BME280;15207;42.182;24.308;2023-04-30T08:22:25;98956.19;;;21.07;42.90
27840;BME280;15207;42.182;24.308;2023-04-30T08:24:51;98955.44;;;21.20;42.23
27840;BME280;15207;42.182;24.308;2023-04-30T08:27:17;98955.13;;;21.37;41.82
27840;BME280;15207;42.182;24.308;2023-04-30T08:29:42;98954.47;;;20.78;41.76
27840;BME280;15207;42.182;24.308;2023-04-30T08:32:08;98948.06;;;20.64;43.35
27840;BME280;15207;42.182;24.308;2023-04-30T08:34:34;98949.00;;;20.78;44.23
27840;BME280;15207;42.182;24.308;2023-04-30T08:36:59;98944.97;;;20.88;44.05
27840;BME280;15207;42.182;24.308;2023-04-30T08:39:25;98939.53;;;21.24;44.22
27840;BME280;15207;42.182;24.308;2023-04-30T08:41:55;98935.84;;;21.74;42.50
27840;BME280;15207;42.182;24.308;2023-04-30T08:44:22;98916.59;;;21.82;42.79
27840;BME280;15207;42.182;24.308;2023-04-30T08:46:56;98926.19;;;22.54;41.66
27840;BME280;15207;42.182;24.308;2023-04-30T08:49:23;98927.22;;;22.73;40.65
27840;BME280;15207;42.182;24.308;2023-04-30T08:51:50;98929.94;;;22.66;41.71
27840;BME280;15207;42.182;24.308;2023-04-30T08:54:17;98928.50;;;22.57;40.56
27840;BME280;15207;42.182;24.308;2023-04-30T08:56:46;98924.06;;;22.42;40.69
27840;BME280;15207;42.182;24.308;2023-04-30T08:59:12;98924.94;;;22.56;40.95
27840;BME280;15207;42.182;24.308;2023-04-30T09:01:38;98929.13;;;22.72;39.49
27840;BME280;15207;42.182;24.308;2023-04-30T09:04:05;98924.91;;;22.97;39.62
27840;BME280;15207;42.182;24.308;2023-04-30T09:06:30;98917.38;;;22.92;39.69
27840;BME280;15207;42.182;24.308;2023-04-30T09:08:56;98921.13;;;22.91;38.31
27840;BME280;15207;42.182;24.308;2023-04-30T09:11:25;98915.03;;;22.49;37.88
27840;BME280;15207;42.182;24.308;2023-04-30T09:13:54;98922.16;;;22.29;38.96
27840;BME280;15207;42.182;24.308;2023-04-30T09:16:20;98917.09;;;22.19;39.12
27840;BME280;15207;42.182;24.308;2023-04-30T09:18:46;98919.22;;;22.24;40.82
27840;BME280;15207;42.182;24.308;2023-04-30T09:21:12;98920.44;;;22.28;40.19
27840;BME280;15207;42.182;24.308;2023-04-30T09:23:55;98904.75;;;22.37;40.62
27840;BME280;15207;42.182;24.308;2023-04-30T09:26:32;98907.25;;;22.45;39.40
27840;BME280;15207;42.182;24.308;2023-04-30T09:28:59;98904.69;;;22.10;39.21
27840;BME280;15207;42.182;24.308;2023-04-30T09:31:25;98900.72;;;21.99;39.46
27840;BME280;15207;42.182;24.308;2023-04-30T09:33:51;98904.69;;;22.03;40.27
27840;BME280;15207;42.182;24.308;2023-04-30T09:36:20;98899.47;;;22.22;39.00
27840;BME280;15207;42.182;24.308;2023-04-30T09:38:46;98904.91;;;22.09;38.11
27840;BME280;15207;42.182;24.308;2023-04-30T09:41:26;98893.41;;;22.20;39.05
27840;BME280;15207;42.182;24.308;2023-04-30T09:43:55;98899.28;;;22.44;39.24
27840;BME280;15207;42.182;24.308;2023-04-30T09:46:29;98891.34;;;22.56;38.37
27840;BME280;15207;42.182;24.308;2023-04-30T09:48:59;98885.06;;;22.62;37.64
27840;BME280;15207;42.182;24.308;2023-04-30T09:51:25;98891.78;;;22.59;38.51
27840;BME280;15207;42.182;24.308;2023-04-30T09:53:52;98887.78;;;22.55;38.97
27840;BME280;15207;42.182;24.308;2023-04-30T09:56:24;98886.75;;;22.56;38.84
27840;BME280;15207;42.182;24.308;2023-04-30T09:58:55;98878.34;;;22.65;38.69
27840;BME280;15207;42.182;24.308;2023-04-30T10:01:25;98881.06;;;22.58;37.03
27840;BME280;15207;42.182;24.308;2023-04-30T10:03:53;98871.44;;;22.55;36.50
27840;BME280;15207;42.182;24.308;2023-04-30T10:06:20;98871.19;;;22.50;36.37
27840;BME280;15207;42.182;24.308;2023-04-30T10:08:56;98873.50;;;22.53;35.80
27840;BME280;15207;42.182;24.308;2023-04-30T10:11:26;98866.59;;;22.57;36.08
27840;BME280;15207;42.182;24.308;2023-04-30T10:13:59;98860.28;;;22.37;36.04
27840;BME280;15207;42.182;24.308;2023-04-30T10:18:59;98866.19;;;22.67;36.42
27840;BME280;15207;42.182;24.308;2023-04-30T10:23:54;98859.34;;;23.17;37.03
27840;BME280;15207;42.182;24.308;2023-04-30T10:26:21;98858.22;;;23.32;33.41
27840;BME280;15207;42.182;24.308;2023-04-30T10:28:48;98856.06;;;23.54;34.90
27840;BME280;15207;42.182;24.308;2023-04-30T10:31:16;98855.22;;;23.60;32.41
27840;BME280;15207;42.182;24.308;2023-04-30T10:34:40;98850.38;;;23.56;33.33
27840;BME280;15207;42.182;24.308;2023-04-30T10:36:47;98851.44;;;23.55;33.08
27840;BME280;15207;42.182;24.308;2023-04-30T10:39:21;98844.38;;;23.33;34.29
27840;BME280;15207;42.182;24.308;2023-04-30T10:41:47;98850.28;;;23.30;35.17
27840;BME280;15207;42.182;24.308;2023-04-30T10:44:14;98840.56;;;23.48;35.44
27840;BME280;15207;42.182;24.308;2023-04-30T10:46:40;98837.81;;;23.48;33.45
27840;BME280;15207;42.182;24.308;2023-04-30T10:49:06;98836.47;;;23.64;33.68
27840;BME280;15207;42.182;24.308;2023-04-30T10:51:49;98836.28;;;23.98;33.76
27840;BME280;15207;42.182;24.308;2023-04-30T10:54:31;98829.16;;;24.22;34.28
27840;BME280;15207;42.182;24.308;2023-04-30T10:57:14;98821.72;;;24.80;32.78
27840;BME280;15207;42.182;24.308;2023-04-30T11:02:44;98826.09;;;24.81;32.82
27840;BME280;15207;42.182;24.308;2023-04-30T11:05:13;98831.06;;;24.73;31.80
27840;BME280;15207;42.182;24.308;2023-04-30T11:07:49;98819.31;;;24.47;31.61
27840;BME280;15207;42.182;24.308;2023-04-30T11:10:19;98824.88;;;24.33;31.60
27840;BME280;15207;42.182;24.308;2023-04-30T11:12:53;98827.19;;;24.04;32.13
27840;BME280;15207;42.182;24.308;2023-04-30T11:15:21;98825.34;;;23.98;33.54
27840;BME280;15207;42.182;24.308;2023-04-30T11:17:49;98837.50;;;24.09;32.68
27840;BME280;15207;42.182;24.308;2023-04-30T11:20:21;98835.50;;;23.90;32.58
27840;BME280;15207;42.182;24.308;2023-04-30T11:22:47;98836.34;;;23.45;34.72
27840;BME280;15207;42.182;24.308;2023-04-30T11:25:18;98848.38;;;23.24;34.99
27840;BME280;15207;42.182;24.308;2023-04-30T11:27:44;98853.16;;;22.76;35.50
27840;BME280;15207;42.182;24.308;2023-04-30T11:30:17;98848.09;;;22.39;37.11
27840;BME280;15207;42.182;24.308;2023-04-30T11:32:44;98849.34;;;22.10;36.39
27840;BME280;15207;42.182;24.308;2023-04-30T11:35:12;98849.56;;;22.28;36.79
27840;BME280;15207;42.182;24.308;2023-04-30T11:37:40;98843.91;;;22.37;36.27
27840;BME280;15207;42.182;24.308;2023-04-30T11:40:09;98840.31;;;22.36;36.97
27840;BME280;15207;42.182;24.308;2023-04-30T11:42:37;98835.72;;;22.43;37.07
27840;BME280;15207;42.182;24.308;2023-04-30T11:47:48;98837.84;;;22.55;35.80
27840;BME280;15207;42.182;24.308;2023-04-30T11:50:19;98833.63;;;22.52;37.50
27840;BME280;15207;42.182;24.308;2023-04-30T11:52:52;98832.97;;;22.77;36.51
27840;BME280;15207;42.182;24.308;2023-04-30T11:55:20;98825.16;;;23.01;35.44
27840;BME280;15207;42.182;24.308;2023-04-30T11:57:49;98823.81;;;23.24;35.54
27840;BME280;15207;42.182;24.308;2023-04-30T12:00:16;98818.47;;;23.49;34.71
27840;BME280;15207;42.182;24.308;2023-04-30T12:02:43;98814.97;;;23.42;33.70
27840;BME280;15207;42.182;24.308;2023-04-30T12:07:43;98814.78;;;23.30;32.41
27840;BME280;15207;42.182;24.308;2023-04-30T12:10:10;98807.75;;;22.95;33.18
27840;BME280;15207;42.182;24.308;2023-04-30T12:12:36;98808.47;;;23.23;33.21
27840;BME280;15207;42.182;24.308;2023-04-30T12:15:19;98813.50;;;23.40;32.89
27840;BME280;15207;42.182;24.308;2023-04-30T12:17:47;98818.88;;;23.53;32.72
27840;BME280;15207;42.182;24.308;2023-04-30T12:20:14;98810.09;;;23.44;32.00
27840;BME280;15207;42.182;24.308;2023-04-30T12:22:41;98820.16;;;23.50;33.25
27840;BME280;15207;42.182;24.308;2023-04-30T12:25:18;98810.25;;;23.56;34.28
27840;BME280;15207;42.182;24.308;2023-04-30T12:27:45;98813.56;;;23.65;35.13
27840;BME280;15207;42.182;24.308;2023-04-30T12:30:12;98819.16;;;23.77;33.13
27840;BME280;15207;42.182;24.308;2023-04-30T12:32:40;98839.28;;;23.50;35.87
27840;BME280;15207;42.182;24.308;2023-04-30T12:35:07;98843.44;;;22.94;40.92
27840;BME280;15207;42.182;24.308;2023-04-30T12:37:33;98846.00;;;22.21;40.98
27840;BME280;15207;42.182;24.308;2023-04-30T12:39:59;98857.66;;;21.81;41.29
27840;BME280;15207;42.182;24.308;2023-04-30T12:42:30;98864.19;;;21.31;42.33
27840;BME280;15207;42.182;24.308;2023-04-30T12:44:58;98870.16;;;20.84;43.43
27840;BME280;15207;42.182;24.308;2023-04-30T12:47:24;98868.50;;;20.55;43.08
27840;BME280;15207;42.182;24.308;2023-04-30T12:49:50;98862.22;;;20.54;42.76
27840;BME280;15207;42.182;24.308;2023-04-30T12:52:15;98867.34;;;20.42;43.73
27840;BME280;15207;42.182;24.308;2023-04-30T12:54:41;98872.53;;;20.37;44.08
27840;BME280;15207;42.182;24.308;2023-04-30T12:57:08;98869.25;;;20.42;44.69
27840;BME280;15207;42.182;24.308;2023-04-30T13:02:22;98864.16;;;20.10;41.82
27840;BME280;15207;42.182;24.308;2023-04-30T13:04:49;98863.50;;;20.08;42.55
27840;BME280;15207;42.182;24.308;2023-04-30T13:07:15;98890.34;;;20.40;43.75
27840;BME280;15207;42.182;24.308;2023-04-30T13:09:41;98879.75;;;20.23;46.71
27840;BME280;15207;42.182;24.308;2023-04-30T13:12:06;98886.09;;;20.08;47.78
27840;BME280;15207;42.182;24.308;2023-04-30T13:14:33;98881.72;;;19.55;48.20
27840;BME280;15207;42.182;24.308;2023-04-30T13:16:59;98889.53;;;19.13;48.71
27840;BME280;15207;42.182;24.308;2023-04-30T13:19:25;98873.22;;;18.98;48.98
27840;BME280;15207;42.182;24.308;2023-04-30T13:21:51;98876.66;;;18.77;50.46
27840;BME280;15207;42.182;24.308;2023-04-30T13:24:16;98864.00;;;18.54;51.86
27840;BME280;15207;42.182;24.308;2023-04-30T13:26:43;98869.53;;;18.61;53.26
27840;BME280;15207;42.182;24.308;2023-04-30T13:29:09;98868.50;;;18.62;52.19